sensor_id;sensor_type;location;lat;lon;timestamp;P1;durP1;ratioP1;P2;durP2;ratioP2
1505;SDS011;744;51.436;7.356;2023-07-02T00:00:06;3.90;;;3.00;;
1505;SDS011;744;51.436;7.356;2023-07-02T00:02:35;3.80;;;2.90;;
1505;SDS011;744;51.436;7.356;2023-07-02T00:05:02;6.40;;;3.37;;
1505;SDS011;744;51.436;7.356;2023-07-02T00:07:30;3.90;;;2.97;;
1505;SDS011;744;51.436;7.356;2023-07-02T00:09:57;6.10;;;3.23;;
1505;SDS011;744;51.436;7.356;2023-07-02T00:12:24;3.57;;;2.63;;
1505;SDS011;744;51.436;7.356;2023-07-02T00:14:51;3.63;;;2.50;;
1505;SDS011;744;51.436;7.356;2023-07-02T00:17:19;2.80;;;2.60;;
1505;SDS011;744;51.436;7.356;2023-07-02T00:19:47;3.40;;;2.50;;
1505;SDS011;744;51.436;7.356;2023-07-02T00:22:18;5.80;;;2.63;;
1505;SDS011;744;51.436;7.356;2023-07-02T00:24:45;4.80;;;3.00;;
1505;SDS011;744;51.436;7.356;2023-07-02T00:27:12;3.83;;;3.43;;
1505;SDS011;744;51.436;7.356;2023-07-02T00:29:39;3.47;;;3.00;;
1505;SDS011;744;51.436;7.356;2023-07-02T00:32:06;4.43;;;2.67;;
1505;SDS011;744;51.436;7.356;2023-07-02T00:34:32;4.20;;;2.80;;
1505;SDS011;744;51.436;7.356;2023-07-02T00:36:59;5.13;;;3.30;;
1505;SDS011;744;51.436;7.356;2023-07-02T00:39:26;4.77;;;3.07;;
1505;SDS011;744;51.436;7.356;2023-07-02T00:41:53;5.57;;;2.67;;
1505;SDS011;744;51.436;7.356;2023-07-02T00:44:20;3.00;;;2.73;;
1505;SDS011;744;51.436;7.356;2023-07-02T00:46:49;5.97;;;3.00;;
1505;SDS011;744;51.436;7.356;2023-07-02T00:49:16;2.93;;;2.50;;
1505;SDS011;744;51.436;7.356;2023-07-02T00:51:44;5.77;;;2.70;;
1505;SDS011;744;51.436;7.356;2023-07-02T00:54:11;3.50;;;3.20;;
1505;SDS011;744;51.436;7.356;2023-07-02T00:56:37;5.80;;;4.10;;
1505;SDS011;744;51.436;7.356;2023-07-02T00:59:04;4.20;;;2.97;;
1505;SDS011;744;51.436;7.356;2023-07-02T01:01:33;4.47;;;3.40;;
1505;SDS011;744;51.436;7.356;2023-07-02T01:04:05;3.57;;;2.87;;
1505;SDS011;744;51.436;7.356;2023-07-02T01:06:34;5.10;;;4.10;;
1505;SDS011;744;51.436;7.356;2023-07-02T01:09:03;5.20;;;3.30;;
1505;SDS011;744;51.436;7.356;2023-07-02T01:11:35;7.00;;;3.30;;
1505;SDS011;744;51.436;7.356;2023-07-02T01:14:05;3.73;;;2.87;;
1505;SDS011;744;51.436;7.356;2023-07-02T01:16:36;7.03;;;3.57;;
1505;SDS011;744;51.436;7.356;2023-07-02T01:19:08;5.37;;;3.43;;
1505;SDS011;744;51.436;7.356;2023-07-02T01:21:39;5.53;;;3.20;;
1505;SDS011;744;51.436;7.356;2023-07-02T01:24:06;7.20;;;4.67;;
1505;SDS011;744;51.436;7.356;2023-07-02T01:26:33;4.20;;;3.73;;
1505;SDS011;744;51.436;7.356;2023-07-02T01:29:16;5.70;;;4.03;;
1505;SDS011;744;51.436;7.356;2023-07-02T01:31:44;5.30;;;3.10;;
1505;SDS011;744;51.436;7.356;2023-07-02T01:34:11;4.70;;;3.60;;
1505;SDS011;744;51.436;7.356;2023-07-02T01:36:39;6.73;;;3.90;;
1505;SDS011;744;51.436;7.356;2023-07-02T01:39:06;6.83;;;4.30;;
1505;SDS011;744;51.436;7.356;2023-07-02T01:41:36;6.17;;;4.03;;
1505;SDS011;744;51.436;7.356;2023-07-02T01:44:23;8.53;;;3.80;;
1505;SDS011;744;51.436;7.356;2023-07-02T01:46:50;6.20;;;4.00;;
1505;SDS011;744;51.436;7.356;2023-07-02T01:49:18;6.47;;;4.33;;
1505;SDS011;744;51.436;7.356;2023-07-02T01:51:49;5.70;;;3.93;;
1505;SDS011;744;51.436;7.356;2023-07-02T01:54:17;5.87;;;4.10;;
1505;SDS011;744;51.436;7.356;2023-07-02T01:56:44;7.03;;;4.43;;
1505;SDS011;744;51.436;7.356;2023-07-02T01:59:11;7.10;;;4.40;;
1505;SDS011;744;51.436;7.356;2023-07-02T02:01:38;6.17;;;4.20;;
1505;SDS011;744;51.436;7.356;2023-07-02T02:04:07;8.00;;;4.23;;
1505;SDS011;744;51.436;7.356;2023-07-02T02:06:35;8.10;;;4.27;;
1505;SDS011;744;51.436;7.356;2023-07-02T02:09:02;5.97;;;4.50;;
1505;SDS011;744;51.436;7.356;2023-07-02T02:11:30;5.90;;;4.80;;
1505;SDS011;744;51.436;7.356;2023-07-02T02:13:58;6.20;;;4.40;;
1505;SDS011;744;51.436;7.356;2023-07-02T02:16:27;7.37;;;3.93;;
1505;SDS011;744;51.436;7.356;2023-07-02T02:18:55;5.90;;;4.67;;
1505;SDS011;744;51.436;7.356;2023-07-02T02:21:22;5.77;;;4.30;;
1505;SDS011;744;51.436;7.356;2023-07-02T02:23:49;7.17;;;4.60;;
1505;SDS011;744;51.436;7.356;2023-07-02T02:26:16;8.33;;;5.50;;
1505;SDS011;744;51.436;7.356;2023-07-02T02:28:42;7.20;;;5.00;;
1505;SDS011;744;51.436;7.356;2023-07-02T02:31:09;9.97;;;5.40;;
1505;SDS011;744;51.436;7.356;2023-07-02T02:33:36;9.40;;;5.70;;
1505;SDS011;744;51.436;7.356;2023-07-02T02:36:04;8.53;;;5.93;;
1505;SDS011;744;51.436;7.356;2023-07-02T02:38:31;12.70;;;4.90;;
1505;SDS011;744;51.436;7.356;2023-07-02T02:40:58;10.20;;;5.63;;
1505;SDS011;744;51.436;7.356;2023-07-02T02:43:25;12.10;;;5.23;;
1505;SDS011;744;51.436;7.356;2023-07-02T02:45:51;8.00;;;5.83;;
1505;SDS011;744;51.436;7.356;2023-07-02T02:48:18;7.87;;;5.30;;
1505;SDS011;744;51.436;7.356;2023-07-02T02:50:45;10.47;;;6.03;;
1505;SDS011;744;51.436;7.356;2023-07-02T02:53:13;9.83;;;6.60;;
1505;SDS011;744;51.436;7.356;2023-07-02T02:55:40;12.70;;;6.30;;
1505;SDS011;744;51.436;7.356;2023-07-02T02:58:07;9.13;;;5.30;;
1505;SDS011;744;51.436;7.356;2023-07-02T03:00:33;15.40;;;7.67;;
1505;SDS011;744;51.436;7.356;2023-07-02T03:03:00;8.83;;;5.47;;
1505;SDS011;744;51.436;7.356;2023-07-02T03:05:29;10.43;;;6.50;;
1505;SDS011;744;51.436;7.356;2023-07-02T03:07:56;9.90;;;6.40;;
1505;SDS011;744;51.436;7.356;2023-07-02T03:10:23;12.30;;;7.93;;
1505;SDS011;744;51.436;7.356;2023-07-02T03:12:49;17.07;;;8.40;;
1505;SDS011;744;51.436;7.356;2023-07-02T03:15:16;11.93;;;6.87;;
1505;SDS011;744;51.436;7.356;2023-07-02T03:17:43;11.73;;;8.13;;
1505;SDS011;744;51.436;7.356;2023-07-02T03:20:10;12.77;;;6.73;;
1505;SDS011;744;51.436;7.356;2023-07-02T03:22:38;12.83;;;7.90;;
1505;SDS011;744;51.436;7.356;2023-07-02T03:25:04;10.80;;;7.43;;
1505;SDS011;744;51.436;7.356;2023-07-02T03:27:32;18.37;;;8.80;;
1505;SDS011;744;51.436;7.356;2023-07-02T03:29:59;13.73;;;8.40;;
1505;SDS011;744;51.436;7.356;2023-07-02T03:32:25;14.37;;;8.40;;
1505;SDS011;744;51.436;7.356;2023-07-02T03:34:52;16.53;;;8.70;;
1505;SDS011;744;51.436;7.356;2023-07-02T03:37:19;13.63;;;8.50;;
1505;SDS011;744;51.436;7.356;2023-07-02T03:39:46;14.13;;;8.90;;
1505;SDS011;744;51.436;7.356;2023-07-02T03:42:13;15.80;;;8.00;;
1505;SDS011;744;51.436;7.356;2023-07-02T03:44:40;16.77;;;9.90;;
1505;SDS011;744;51.436;7.356;2023-07-02T03:47:07;13.80;;;9.97;;
1505;SDS011;744;51.436;7.356;2023-07-02T03:49:34;20.70;;;10.60;;
1505;SDS011;744;51.436;7.356;2023-07-02T03:52:01;15.80;;;10.27;;
1505;SDS011;744;51.436;7.356;2023-07-02T03:54:28;23.17;;;10.53;;
1505;SDS011;744;51.436;7.356;2023-07-02T03:56:55;14.40;;;9.90;;
1505;SDS011;744;51.436;7.356;2023-07-02T03:59:22;14.70;;;9.43;;
1505;SDS011;744;51.436;7.356;2023-07-02T04:01:49;18.23;;;10.57;;
1505;SDS011;744;51.436;7.356;2023-07-02T04:04:15;18.27;;;10.73;;
1505;SDS011;744;51.436;7.356;2023-07-02T04:06:42;19.20;;;11.47;;
1505;SDS011;744;51.436;7.356;2023-07-02T04:09:09;19.63;;;11.07;;
1505;SDS011;744;51.436;7.356;2023-07-02T04:11:36;20.60;;;10.90;;
1505;SDS011;744;51.436;7.356;2023-07-02T04:14:03;16.47;;;10.80;;
1505;SDS011;744;51.436;7.356;2023-07-02T04:16:30;14.30;;;11.03;;
1505;SDS011;744;51.436;7.356;2023-07-02T04:18:56;19.00;;;12.00;;
1505;SDS011;744;51.436;7.356;2023-07-02T04:21:23;17.50;;;12.20;;
1505;SDS011;744;51.436;7.356;2023-07-02T04:23:50;16.87;;;12.27;;
1505;SDS011;744;51.436;7.356;2023-07-02T04:26:17;17.70;;;11.77;;
1505;SDS011;744;51.436;7.356;2023-07-02T04:29:04;17.63;;;10.97;;
1505;SDS011;744;51.436;7.356;2023-07-02T04:31:31;16.40;;;11.50;;
1505;SDS011;744;51.436;7.356;2023-07-02T04:33:58;18.53;;;12.57;;
1505;SDS011;744;51.436;7.356;2023-07-02T04:36:25;18.30;;;13.13;;
1505;SDS011;744;51.436;7.356;2023-07-02T04:38:52;17.50;;;12.60;;
1505;SDS011;744;51.436;7.356;2023-07-02T04:41:19;19.57;;;13.13;;
1505;SDS011;744;51.436;7.356;2023-07-02T04:43:46;18.40;;;11.97;;
1505;SDS011;744;51.436;7.356;2023-07-02T04:46:13;25.13;;;12.90;;
1505;SDS011;744;51.436;7.356;2023-07-02T04:48:41;18.43;;;10.87;;
1505;SDS011;744;51.436;7.356;2023-07-02T04:51:08;16.93;;;11.40;;
1505;SDS011;744;51.436;7.356;2023-07-02T04:53:35;15.33;;;11.33;;
1505;SDS011;744;51.436;7.356;2023-07-02T04:56:04;16.73;;;12.00;;
1505;SDS011;744;51.436;7.356;2023-07-02T04:58:33;17.20;;;12.67;;
1505;SDS011;744;51.436;7.356;2023-07-02T05:01:00;18.90;;;12.50;;
1505;SDS011;744;51.436;7.356;2023-07-02T05:03:27;21.40;;;13.10;;
1505;SDS011;744;51.436;7.356;2023-07-02T05:05:54;16.73;;;13.27;;
1505;SDS011;744;51.436;7.356;2023-07-02T05:08:21;24.83;;;11.80;;
1505;SDS011;744;51.436;7.356;2023-07-02T05:10:48;20.17;;;12.73;;
1505;SDS011;744;51.436;7.356;2023-07-02T05:13:15;20.43;;;11.87;;
1505;SDS011;744;51.436;7.356;2023-07-02T05:15:42;17.50;;;11.80;;
1505;SDS011;744;51.436;7.356;2023-07-02T05:18:09;19.80;;;12.60;;
1505;SDS011;744;51.436;7.356;2023-07-02T05:20:36;19.80;;;11.70;;
1505;SDS011;744;51.436;7.356;2023-07-02T05:23:03;24.33;;;13.17;;
1505;SDS011;744;51.436;7.356;2023-07-02T05:25:30;24.27;;;13.97;;
1505;SDS011;744;51.436;7.356;2023-07-02T05:27:58;17.07;;;12.20;;
1505;SDS011;744;51.436;7.356;2023-07-02T05:30:25;17.70;;;12.27;;
1505;SDS011;744;51.436;7.356;2023-07-02T05:32:52;17.50;;;11.77;;
1505;SDS011;744;51.436;7.356;2023-07-02T05:35:19;21.13;;;13.67;;
1505;SDS011;744;51.436;7.356;2023-07-02T05:37:46;22.93;;;13.13;;
1505;SDS011;744;51.436;7.356;2023-07-02T05:40:13;16.70;;;12.47;;
1505;SDS011;744;51.436;7.356;2023-07-02T05:42:43;21.20;;;12.80;;
1505;SDS011;744;51.436;7.356;2023-07-02T05:45:10;19.90;;;12.80;;
1505;SDS011;744;51.436;7.356;2023-07-02T05:47:37;22.90;;;15.07;;
1505;SDS011;744;51.436;7.356;2023-07-02T05:50:04;20.37;;;15.00;;
1505;SDS011;744;51.436;7.356;2023-07-02T05:52:33;22.33;;;13.57;;
1505;SDS011;744;51.436;7.356;2023-07-02T05:55:00;23.80;;;13.63;;
1505;SDS011;744;51.436;7.356;2023-07-02T05:57:26;22.23;;;14.37;;
1505;SDS011;744;51.436;7.356;2023-07-02T05:59:53;23.40;;;13.33;;
1505;SDS011;744;51.436;7.356;2023-07-02T06:02:20;21.03;;;13.77;;
1505;SDS011;744;51.436;7.356;2023-07-02T06:04:47;23.03;;;14.77;;
1505;SDS011;744;51.436;7.356;2023-07-02T06:07:14;22.13;;;14.47;;
1505;SDS011;744;51.436;7.356;2023-07-02T06:09:41;20.20;;;15.00;;
1505;SDS011;744;51.436;7.356;2023-07-02T06:12:08;25.37;;;14.13;;
1505;SDS011;744;51.436;7.356;2023-07-02T06:14:35;24.93;;;14.07;;
1505;SDS011;744;51.436;7.356;2023-07-02T06:17:01;21.07;;;12.50;;
1505;SDS011;744;51.436;7.356;2023-07-02T06:19:32;18.60;;;13.80;;
1505;SDS011;744;51.436;7.356;2023-07-02T06:21:59;29.13;;;14.37;;
1505;SDS011;744;51.436;7.356;2023-07-02T06:24:26;22.43;;;13.23;;
1505;SDS011;744;51.436;7.356;2023-07-02T06:26:53;21.23;;;14.00;;
1505;SDS011;744;51.436;7.356;2023-07-02T06:29:22;24.97;;;14.33;;
1505;SDS011;744;51.436;7.356;2023-07-02T06:31:50;23.60;;;13.50;;
1505;SDS011;744;51.436;7.356;2023-07-02T06:34:17;23.67;;;14.37;;
1505;SDS011;744;51.436;7.356;2023-07-02T06:36:43;17.83;;;13.80;;
1505;SDS011;744;51.436;7.356;2023-07-02T06:39:10;23.73;;;14.13;;
1505;SDS011;744;51.436;7.356;2023-07-02T06:41:37;23.83;;;14.37;;
1505;SDS011;744;51.436;7.356;2023-07-02T06:44:04;23.90;;;13.60;;
1505;SDS011;744;51.436;7.356;2023-07-02T06:46:32;18.60;;;13.00;;
1505;SDS011;744;51.436;7.356;2023-07-02T06:48:59;22.43;;;13.80;;
1505;SDS011;744;51.436;7.356;2023-07-02T06:51:26;24.97;;;14.13;;
1505;SDS011;744;51.436;7.356;2023-07-02T06:53:55;19.80;;;13.07;;
1505;SDS011;744;51.436;7.356;2023-07-02T06:56:22;26.90;;;14.30;;
1505;SDS011;744;51.436;7.356;2023-07-02T06:58:49;27.00;;;13.27;;
1505;SDS011;744;51.436;7.356;2023-07-02T07:01:15;19.97;;;12.50;;
1505;SDS011;744;51.436;7.356;2023-07-02T07:03:42;21.70;;;13.87;;
1505;SDS011;744;51.436;7.356;2023-07-02T07:06:10;18.90;;;11.97;;
1505;SDS011;744;51.436;7.356;2023-07-02T07:08:37;19.10;;;11.50;;
1505;SDS011;744;51.436;7.356;2023-07-02T07:11:07;23.13;;;12.97;;
1505;SDS011;744;51.436;7.356;2023-07-02T07:13:34;22.03;;;13.10;;
1505;SDS011;744;51.436;7.356;2023-07-02T07:16:01;26.83;;;12.67;;
1505;SDS011;744;51.436;7.356;2023-07-02T07:18:28;22.90;;;12.00;;
1505;SDS011;744;51.436;7.356;2023-07-02T07:20:58;16.80;;;11.17;;
1505;SDS011;744;51.436;7.356;2023-07-02T07:23:25;19.53;;;11.70;;
1505;SDS011;744;51.436;7.356;2023-07-02T07:25:52;17.63;;;10.93;;
1505;SDS011;744;51.436;7.356;2023-07-02T07:28:19;25.50;;;12.63;;
1505;SDS011;744;51.436;7.356;2023-07-02T07:30:45;19.87;;;11.87;;
1505;SDS011;744;51.436;7.356;2023-07-02T07:33:13;16.30;;;10.60;;
1505;SDS011;744;51.436;7.356;2023-07-02T07:35:40;18.17;;;11.70;;
1505;SDS011;744;51.436;7.356;2023-07-02T07:38:07;17.63;;;11.17;;
1505;SDS011;744;51.436;7.356;2023-07-02T07:40:34;22.43;;;11.03;;
1505;SDS011;744;51.436;7.356;2023-07-02T07:43:00;16.70;;;11.57;;
1505;SDS011;744;51.436;7.356;2023-07-02T07:45:27;18.20;;;11.93;;
1505;SDS011;744;51.436;7.356;2023-07-02T07:47:54;25.17;;;11.77;;
1505;SDS011;744;51.436;7.356;2023-07-02T07:50:21;17.70;;;10.50;;
1505;SDS011;744;51.436;7.356;2023-07-02T07:52:48;16.70;;;11.30;;
1505;SDS011;744;51.436;7.356;2023-07-02T07:55:15;19.37;;;11.80;;
1505;SDS011;744;51.436;7.356;2023-07-02T07:57:42;21.20;;;13.70;;
1505;SDS011;744;51.436;7.356;2023-07-02T08:00:09;22.57;;;11.77;;
1505;SDS011;744;51.436;7.356;2023-07-02T08:02:37;17.93;;;10.20;;
1505;SDS011;744;51.436;7.356;2023-07-02T08:05:04;18.10;;;12.10;;
1505;SDS011;744;51.436;7.356;2023-07-02T08:07:31;18.73;;;11.53;;
1505;SDS011;744;51.436;7.356;2023-07-02T08:09:59;18.00;;;10.63;;
1505;SDS011;744;51.436;7.356;2023-07-02T08:12:26;20.67;;;10.63;;
1505;SDS011;744;51.436;7.356;2023-07-02T08:14:58;18.97;;;10.50;;
1505;SDS011;744;51.436;7.356;2023-07-02T08:17:24;16.93;;;11.00;;
1505;SDS011;744;51.436;7.356;2023-07-02T08:19:51;14.70;;;10.77;;
1505;SDS011;744;51.436;7.356;2023-07-02T08:22:18;18.20;;;11.70;;
1505;SDS011;744;51.436;7.356;2023-07-02T08:24:45;16.30;;;8.93;;
1505;SDS011;744;51.436;7.356;2023-07-02T08:27:15;17.37;;;10.87;;
1505;SDS011;744;51.436;7.356;2023-07-02T08:29:46;18.47;;;10.50;;
1505;SDS011;744;51.436;7.356;2023-07-02T08:32:14;21.33;;;10.87;;
1505;SDS011;744;51.436;7.356;2023-07-02T08:34:41;16.43;;;10.27;;
1505;SDS011;744;51.436;7.356;2023-07-02T08:37:08;19.10;;;11.50;;
1505;SDS011;744;51.436;7.356;2023-07-02T08:39:35;20.53;;;11.30;;
1505;SDS011;744;51.436;7.356;2023-07-02T08:42:03;15.27;;;10.17;;
1505;SDS011;744;51.436;7.356;2023-07-02T08:44:30;22.97;;;13.30;;
1505;SDS011;744;51.436;7.356;2023-07-02T08:46:57;15.73;;;9.80;;
1505;SDS011;744;51.436;7.356;2023-07-02T08:49:25;14.13;;;11.20;;
1505;SDS011;744;51.436;7.356;2023-07-02T08:51:54;23.10;;;12.33;;
1505;SDS011;744;51.436;7.356;2023-07-02T08:54:21;19.80;;;11.50;;
1505;SDS011;744;51.436;7.356;2023-07-02T08:56:47;20.40;;;10.27;;
1505;SDS011;744;51.436;7.356;2023-07-02T08:59:14;17.30;;;9.77;;
1505;SDS011;744;51.436;7.356;2023-07-02T09:01:45;19.77;;;9.90;;
1505;SDS011;744;51.436;7.356;2023-07-02T09:06:43;13.67;;;8.20;;
1505;SDS011;744;51.436;7.356;2023-07-02T09:09:10;12.37;;;7.97;;
1505;SDS011;744;51.436;7.356;2023-07-02T09:11:47;13.40;;;8.17;;
1505;SDS011;744;51.436;7.356;2023-07-02T09:14:24;10.30;;;7.00;;
1505;SDS011;744;51.436;7.356;2023-07-02T09:17:03;18.27;;;8.70;;
1505;SDS011;744;51.436;7.356;2023-07-02T09:19:31;14.23;;;8.83;;
1505;SDS011;744;51.436;7.356;2023-07-02T09:21:59;13.70;;;9.13;;
1505;SDS011;744;51.436;7.356;2023-07-02T09:24:27;13.67;;;8.97;;
1505;SDS011;744;51.436;7.356;2023-07-02T09:26:57;12.47;;;8.03;;
1505;SDS011;744;51.436;7.356;2023-07-02T09:29:29;10.97;;;8.10;;
1505;SDS011;744;51.436;7.356;2023-07-02T09:31:58;15.67;;;8.23;;
1505;SDS011;744;51.436;7.356;2023-07-02T09:34:39;15.87;;;8.37;;
1505;SDS011;744;51.436;7.356;2023-07-02T09:37:08;16.67;;;9.77;;
1505;SDS011;744;51.436;7.356;2023-07-02T09:39:35;15.27;;;8.90;;
1505;SDS011;744;51.436;7.356;2023-07-02T09:42:05;14.07;;;7.80;;
1505;SDS011;744;51.436;7.356;2023-07-02T09:44:34;11.93;;;6.97;;
1505;SDS011;744;51.436;7.356;2023-07-02T09:47:05;12.27;;;7.60;;
1505;SDS011;744;51.436;7.356;2023-07-02T09:52:06;14.30;;;7.97;;
1505;SDS011;744;51.436;7.356;2023-07-02T09:54:34;13.60;;;8.03;;
1505;SDS011;744;51.436;7.356;2023-07-02T09:57:03;13.83;;;8.27;;
1505;SDS011;744;51.436;7.356;2023-07-02T09:59:32;13.23;;;7.83;;
1505;SDS011;744;51.436;7.356;2023-07-02T10:01:59;11.00;;;8.10;;
1505;SDS011;744;51.436;7.356;2023-07-02T10:04:27;15.10;;;8.83;;
1505;SDS011;744;51.436;7.356;2023-07-02T10:06:55;13.40;;;9.27;;
1505;SDS011;744;51.436;7.356;2023-07-02T10:09:39;15.37;;;8.50;;
1505;SDS011;744;51.436;7.356;2023-07-02T10:12:18;15.77;;;9.13;;
1505;SDS011;744;51.436;7.356;2023-07-02T10:14:46;12.57;;;7.77;;
1505;SDS011;744;51.436;7.356;2023-07-02T10:17:30;13.13;;;8.80;;
1505;SDS011;744;51.436;7.356;2023-07-02T10:20:00;15.07;;;9.20;;
1505;SDS011;744;51.436;7.356;2023-07-02T10:22:46;18.80;;;10.00;;
1505;SDS011;744;51.436;7.356;2023-07-02T10:25:33;16.80;;;9.80;;
1505;SDS011;744;51.436;7.356;2023-07-02T10:30:46;16.47;;;8.90;;
1505;SDS011;744;51.436;7.356;2023-07-02T10:35:45;14.47;;;9.70;;
1505;SDS011;744;51.436;7.356;2023-07-02T10:38:19;11.07;;;7.90;;
1505;SDS011;744;51.436;7.356;2023-07-02T10:40:55;12.80;;;8.10;;
1505;SDS011;744;51.436;7.356;2023-07-02T10:43:29;13.83;;;7.57;;
1505;SDS011;744;51.436;7.356;2023-07-02T10:45:57;15.80;;;9.40;;
1505;SDS011;744;51.436;7.356;2023-07-02T10:48:29;11.60;;;8.03;;
1505;SDS011;744;51.436;7.356;2023-07-02T10:50:57;13.33;;;8.70;;
1505;SDS011;744;51.436;7.356;2023-07-02T10:53:24;16.37;;;8.77;;
1505;SDS011;744;51.436;7.356;2023-07-02T10:55:54;16.50;;;8.10;;
1505;SDS011;744;51.436;7.356;2023-07-02T10:58:23;18.20;;;8.80;;
1505;SDS011;744;51.436;7.356;2023-07-02T11:00:51;15.47;;;8.73;;
1505;SDS011;744;51.436;7.356;2023-07-02T11:03:21;12.27;;;8.10;;
1505;SDS011;744;51.436;7.356;2023-07-02T11:05:51;14.93;;;7.43;;
1505;SDS011;744;51.436;7.356;2023-07-02T11:08:19;13.97;;;8.60;;
1505;SDS011;744;51.436;7.356;2023-07-02T11:10:47;12.40;;;7.43;;
1505;SDS011;744;51.436;7.356;2023-07-02T11:13:15;15.10;;;9.07;;
1505;SDS011;744;51.436;7.356;2023-07-02T11:15:44;13.00;;;9.60;;
1505;SDS011;744;51.436;7.356;2023-07-02T11:18:15;12.17;;;8.40;;
1505;SDS011;744;51.436;7.356;2023-07-02T11:20:44;14.67;;;8.33;;
1505;SDS011;744;51.436;7.356;2023-07-02T11:25:58;13.43;;;6.80;;
1505;SDS011;744;51.436;7.356;2023-07-02T11:28:25;10.33;;;7.90;;
1505;SDS011;744;51.436;7.356;2023-07-02T11:30:54;17.33;;;8.70;;
1505;SDS011;744;51.436;7.356;2023-07-02T11:33:37;14.17;;;8.67;;
1505;SDS011;744;51.436;7.356;2023-07-02T11:36:05;12.13;;;6.77;;
1505;SDS011;744;51.436;7.356;2023-07-02T11:38:33;14.90;;;8.47;;
1505;SDS011;744;51.436;7.356;2023-07-02T11:41:02;16.97;;;9.20;;
1505;SDS011;744;51.436;7.356;2023-07-02T11:43:30;11.70;;;7.60;;
1505;SDS011;744;51.436;7.356;2023-07-02T11:45:57;13.20;;;8.40;;
1505;SDS011;744;51.436;7.356;2023-07-02T11:48:24;13.30;;;8.20;;
1505;SDS011;744;51.436;7.356;2023-07-02T11:50:50;12.20;;;7.73;;
1505;SDS011;744;51.436;7.356;2023-07-02T11:53:17;17.60;;;8.53;;
1505;SDS011;744;51.436;7.356;2023-07-02T11:55:44;11.17;;;6.80;;
1505;SDS011;744;51.436;7.356;2023-07-02T11:58:11;10.10;;;6.03;;
1505;SDS011;744;51.436;7.356;2023-07-02T12:00:38;10.97;;;7.40;;
1505;SDS011;744;51.436;7.356;2023-07-02T12:03:05;16.27;;;10.33;;
1505;SDS011;744;51.436;7.356;2023-07-02T12:05:32;13.70;;;7.30;;
1505;SDS011;744;51.436;7.356;2023-07-02T12:08:01;8.90;;;6.70;;
1505;SDS011;744;51.436;7.356;2023-07-02T12:10:28;12.20;;;7.57;;
1505;SDS011;744;51.436;7.356;2023-07-02T12:12:55;9.37;;;6.10;;
1505;SDS011;744;51.436;7.356;2023-07-02T12:15:22;10.70;;;5.80;;
1505;SDS011;744;51.436;7.356;2023-07-02T12:17:49;14.77;;;7.23;;
1505;SDS011;744;51.436;7.356;2023-07-02T12:20:16;11.97;;;7.30;;
1505;SDS011;744;51.436;7.356;2023-07-02T12:22:43;8.33;;;6.00;;
1505;SDS011;744;51.436;7.356;2023-07-02T12:25:10;11.07;;;6.20;;
1505;SDS011;744;51.436;7.356;2023-07-02T12:27:37;11.63;;;6.70;;
1505;SDS011;744;51.436;7.356;2023-07-02T12:30:04;10.33;;;7.33;;
1505;SDS011;744;51.436;7.356;2023-07-02T12:32:32;11.00;;;6.47;;
1505;SDS011;744;51.436;7.356;2023-07-02T12:34:59;11.40;;;6.70;;
1505;SDS011;744;51.436;7.356;2023-07-02T12:37:26;14.37;;;6.40;;
1505;SDS011;744;51.436;7.356;2023-07-02T12:39:53;9.50;;;5.30;;
1505;SDS011;744;51.436;7.356;2023-07-02T18:44:44;9.83;;;6.70;;
1505;SDS011;744;51.436;7.356;2023-07-02T18:47:11;12.00;;;7.70;;
1505;SDS011;744;51.436;7.356;2023-07-02T18:49:38;15.00;;;7.37;;
1505;SDS011;744;51.436;7.356;2023-07-02T18:52:08;10.47;;;7.00;;
1505;SDS011;744;51.436;7.356;2023-07-02T18:54:37;14.00;;;7.47;;
1505;SDS011;744;51.436;7.356;2023-07-02T18:57:04;11.83;;;7.47;;
1505;SDS011;744;51.436;7.356;2023-07-02T18:59:33;13.90;;;7.37;;
1505;SDS011;744;51.436;7.356;2023-07-02T19:02:00;12.80;;;7.70;;
1505;SDS011;744;51.436;7.356;2023-07-02T19:04:29;16.53;;;7.30;;
1505;SDS011;744;51.436;7.356;2023-07-02T19:06:56;15.03;;;7.07;;
1505;SDS011;744;51.436;7.356;2023-07-02T19:09:24;12.50;;;7.60;;
1505;SDS011;744;51.436;7.356;2023-07-02T19:11:51;10.70;;;6.93;;
1505;SDS011;744;51.436;7.356;2023-07-02T19:14:18;14.70;;;8.47;;
1505;SDS011;744;51.436;7.356;2023-07-02T19:16:45;11.30;;;8.00;;
1505;SDS011;744;51.436;7.356;2023-07-02T19:19:14;13.70;;;8.77;;
1505;SDS011;744;51.436;7.356;2023-07-02T19:21:41;9.40;;;7.07;;
1505;SDS011;744;51.436;7.356;2023-07-02T19:24:08;10.70;;;7.20;;
1505;SDS011;744;51.436;7.356;2023-07-02T19:26:35;11.80;;;7.70;;
1505;SDS011;744;51.436;7.356;2023-07-02T19:29:02;12.40;;;7.13;;
1505;SDS011;744;51.436;7.356;2023-07-02T19:31:29;12.37;;;7.50;;
1505;SDS011;744;51.436;7.356;2023-07-02T19:33:56;12.90;;;7.93;;
1505;SDS011;744;51.436;7.356;2023-07-02T19:36:23;12.70;;;6.90;;
1505;SDS011;744;51.436;7.356;2023-07-02T19:38:49;11.47;;;7.93;;
1505;SDS011;744;51.436;7.356;2023-07-02T19:41:17;16.30;;;7.83;;
1505;SDS011;744;51.436;7.356;2023-07-02T19:43:44;14.33;;;7.73;;
1505;SDS011;744;51.436;7.356;2023-07-02T19:46:11;12.07;;;8.00;;
1505;SDS011;744;51.436;7.356;2023-07-02T19:48:38;11.07;;;7.30;;
1505;SDS011;744;51.436;7.356;2023-07-02T19:51:05;15.80;;;8.70;;
1505;SDS011;744;51.436;7.356;2023-07-02T19:53:33;11.83;;;7.97;;
1505;SDS011;744;51.436;7.356;2023-07-02T19:56:09;10.80;;;7.20;;
1505;SDS011;744;51.436;7.356;2023-07-02T19:58:37;9.90;;;7.23;;
1505;SDS011;744;51.436;7.356;2023-07-02T20:01:14;16.10;;;7.10;;
1505;SDS011;744;51.436;7.356;2023-07-02T20:03:42;11.57;;;7.87;;
1505;SDS011;744;51.436;7.356;2023-07-02T20:06:09;13.47;;;8.03;;
1505;SDS011;744;51.436;7.356;2023-07-02T20:08:37;12.20;;;7.60;;
1505;SDS011;744;51.436;7.356;2023-07-02T20:11:04;10.40;;;7.70;;
1505;SDS011;744;51.436;7.356;2023-07-02T20:13:32;16.07;;;9.07;;
1505;SDS011;744;51.436;7.356;2023-07-02T20:16:00;12.70;;;6.93;;
1505;SDS011;744;51.436;7.356;2023-07-02T20:18:27;16.93;;;9.30;;
1505;SDS011;744;51.436;7.356;2023-07-02T20:20:55;11.87;;;7.33;;
1505;SDS011;744;51.436;7.356;2023-07-02T20:23:29;11.93;;;7.57;;
1505;SDS011;744;51.436;7.356;2023-07-02T20:25:55;10.23;;;5.77;;
1505;SDS011;744;51.436;7.356;2023-07-02T20:28:22;11.00;;;5.27;;
1505;SDS011;744;51.436;7.356;2023-07-02T20:30:49;7.50;;;5.90;;
1505;SDS011;744;51.436;7.356;2023-07-02T20:33:17;9.03;;;4.70;;
1505;SDS011;744;51.436;7.356;2023-07-02T20:35:43;9.63;;;5.43;;
1505;SDS011;744;51.436;7.356;2023-07-02T20:38:11;6.80;;;4.50;;
1505;SDS011;744;51.436;7.356;2023-07-02T20:40:41;8.30;;;4.30;;
1505;SDS011;744;51.436;7.356;2023-07-02T20:43:10;12.60;;;4.37;;
1505;SDS011;744;51.436;7.356;2023-07-02T20:45:40;7.37;;;4.67;;
1505;SDS011;744;51.436;7.356;2023-07-02T20:48:07;6.67;;;4.73;;
1505;SDS011;744;51.436;7.356;2023-07-02T20:50:36;11.73;;;4.90;;
1505;SDS011;744;51.436;7.356;2023-07-02T20:53:03;8.23;;;5.13;;
1505;SDS011;744;51.436;7.356;2023-07-02T20:55:31;10.70;;;4.53;;
1505;SDS011;744;51.436;7.356;2023-07-02T20:57:58;12.10;;;5.20;;
1505;SDS011;744;51.436;7.356;2023-07-02T21:00:25;8.17;;;4.60;;
1505;SDS011;744;51.436;7.356;2023-07-02T21:02:52;8.40;;;5.37;;
1505;SDS011;744;51.436;7.356;2023-07-02T21:05:19;8.77;;;4.77;;
1505;SDS011;744;51.436;7.356;2023-07-02T21:07:47;7.00;;;4.83;;
1505;SDS011;744;51.436;7.356;2023-07-02T21:10:15;7.00;;;4.33;;
1505;SDS011;744;51.436;7.356;2023-07-02T21:12:41;6.27;;;4.40;;
1505;SDS011;744;51.436;7.356;2023-07-02T21:15:09;10.60;;;4.50;;
1505;SDS011;744;51.436;7.356;2023-07-02T21:17:36;11.73;;;5.43;;
1505;SDS011;744;51.436;7.356;2023-07-02T21:20:03;7.27;;;4.73;;
1505;SDS011;744;51.436;7.356;2023-07-02T21:22:30;7.87;;;4.17;;
1505;SDS011;744;51.436;7.356;2023-07-02T21:24:58;8.63;;;4.67;;
1505;SDS011;744;51.436;7.356;2023-07-02T21:27:25;5.67;;;4.13;;
1505;SDS011;744;51.436;7.356;2023-07-02T21:29:53;9.80;;;4.53;;
1505;SDS011;744;51.436;7.356;2023-07-02T21:32:20;8.93;;;5.23;;
1505;SDS011;744;51.436;7.356;2023-07-02T21:34:48;8.53;;;4.60;;